Station: MARREE AP

  Atmospheric Gas Attenuation - ITU Rec 676-11   --------------- db/100km ---------------
Date Time Temp RH % AH g/m3 Dew Point Wind Direction Speed kph Gust kph Barometer mB Rainfall Since 9am 24GHz 47GHz 76GHz 122GHz 134GHz 241GHz
27 13:40 21.4 22 4.12 -1.2 22 28 1022.8 0 9.9 18.0 21.6 55.8 40.6 136.2
27 13:30 22 22 4.27 -0.7 24 33 1022.9 0 10.2 18.1 21.9 56.6 41.8 140.6
27 13:20 21.4 22 4.12 -1.2 20 26 1023.2 0 9.9 18.1 21.6 55.8 40.6 136.3
27 13:10 21.7 22 4.2 -0.9 32 37 1023.3 0 10.0 18.1 21.8 56.3 41.3 138.6
27 13:00 21.2 22 4.08 -1.3 24 35 1023.6 0 9.8 18.1 21.6 55.7 40.3 135.2
27 12:50 21.5 22 4.15 -1.1 22 26 1023.5 0 9.9 18.1 21.7 56.0 40.9 137.2
27 12:40 20.7 23 4.14 -1.2 26 30 1023.6 0 9.9 18.2 21.9 56.5 41.1 138.2
27 12:30 20.3 23 4.04 -1.5 22 33 1023.9 0 9.7 18.2 21.7 56.0 40.3 135.3
27 12:20 20.2 23 4.02 -1.6 17 20 1024.2 0 9.7 18.2 21.7 55.9 40.2 134.7
27 12:10 20.6 23 4.12 -1.2 28 35 1024.2 0 9.9 18.2 21.9 56.4 41.0 137.7
27 12:00 20.2 24 4.2 -1 22 32 1024.4 0 10.1 18.4 22.2 57.4 42.0 141.3
27 11:50 20 24 4.15 -1.2 19 22 1024.6 0 10.0 18.4 22.1 57.1 41.6 139.8
27 11:40 20.2 24 4.2 -1 28 33 1024.8 0 10.1 18.4 22.2 57.4 42.1 141.3
27 11:30 20 26 4.49 -0.1 22 35 1025 0 10.7 18.9 23.2 60.0 45.2 152.3
27 11:20 19.8 25 4.27 -0.8 24 30 1025 0 10.2 18.6 22.6 58.3 43.0 144.6
27 11:10 19.3 24 3.98 -1.7 24 28 1025.2 0 9.7 18.3 21.8 56.2 40.3 134.8
27 11:00 19.2 26 4.29 -0.7 22 39 1025.3 0 10.3 18.8 22.8 58.9 43.5 146.4
27 10:50 19 25 4.07 -1.4 20 26 1025.5 0 9.8 18.5 22.2 57.2 41.3 138.7
27 10:40 19.1 25 4.1 -1.4 22 26 1025.6 0 9.9 18.5 22.2 57.4 41.6 139.6
27 10:30 18.9 26 4.21 -1 26 32 1025.6 0 10.1 18.7 22.6 58.5 42.9 144.0
27 10:20 18.7 26 4.16 -1.2 22 28 1025.5 0 10.0 18.7 22.5 58.2 42.4 142.5
27 10:10 18.7 26 4.16 -1.2 20 24 1025.6 0 10.0 18.7 22.5 58.2 42.4 142.5
27 10:00 18.4 27 4.25 -0.9 26 33 1025.7 0 10.2 18.9 22.9 59.2 43.6 146.3
27 09:50 18.1 27 4.17 -1.2 24 32 1025.7 0 10.1 18.8 22.7 58.7 42.9 143.9
27 09:40 17.9 28 4.27 -0.8 28 32 1025.8 0 10.3 19.0 23.1 59.7 44.0 148.0
27 09:30 17.7 29 4.38 -0.5 24 35 1025.8 0 10.5 19.2 23.5 60.8 45.3 152.5
27 09:20 17.7 28 4.22 -1 24 30 1025.8 0 10.2 19.0 23.0 59.4 43.6 146.5
27 09:10 16.9 28 4.03 -1.7 22 26 1025.9 0 9.8 18.9 22.6 58.3 42.0 140.7
27 09:00 16.1 29 3.97 -1.9 17 20 1026 0 9.7 19.0 22.6 58.4 41.8 139.8
27 08:50 15.5 31 4.1 -1.5 15 19 1026.1 0 10.0 19.3 23.2 60.0 43.5 145.8
27 08:40 14.1 34 4.13 -1.5 15 19 1026 0 10.1 19.6 23.7 61.3 44.6 149.4
27 08:30 13.5 36 4.21 -1.3 15 19 1026.1 0 10.3 19.8 24.2 62.4 45.8 153.7
27 08:20 12.6 43 4.76 0.4 17 19 1026.1 0 11.5 20.8 26.3 68.2 52.6 177.7
27 08:10 12.2 46 4.96 0.9 17 20 1026.1 0 11.9 21.2 27.2 70.5 55.3 186.8
27 08:00 11.7 45 4.71 0.2 17 20 1026.1 0 11.4 20.9 26.4 68.5 52.7 177.6
27 07:50 11.2 47 4.76 0.3 17 19 1026 0 11.5 21.1 26.8 69.4 53.6 180.7
27 07:40 10.7 50 4.91 0.7 17 20 1025.9 0 11.9 21.5 27.5 71.3 55.7 188.1
27 07:30 10.4 52 5.01 1 17 20 1025.8 0 12.1 21.7 27.9 72.5 57.1 193.1
27 07:20 10 54 5.08 1.1 15 17 1025.7 0 12.2 21.9 28.3 73.6 58.2 197.0
27 07:10 9.9 52 4.86 0.5 11 11 1025.6 0 11.8 21.6 27.6 71.5 55.6 187.8
27 07:00 9.5 52 4.73 0.1 11 13 1025.5 0 11.5 21.5 27.2 70.6 54.3 183.2
27 06:50 9.7 50 4.61 -0.2 13 15 1025.2 0 11.3 21.2 26.7 69.2 52.7 177.6
27 06:40 8.7 52 4.5 -0.6 15 17 1025 0 11.1 21.3 26.6 69.0 52.1 175.1
27 06:30 7.4 58 4.61 -0.3 9 17 1024.9 0 11.3 21.8 27.5 71.2 54.3 182.7
27 06:20 7.4 58 4.61 -0.3 7 7 1024.7 0 11.3 21.7 27.4 71.2 54.3 182.7
27 06:10 7.4 59 4.69 -0.1 7 7 1024.5 0 11.5 21.9 27.7 72.0 55.2 186.1
27 06:00 7.3 58 4.58 -0.4 7 7 1024.5 0 11.3 21.7 27.4 71.0 53.9 181.5
27 05:50 7.3 58 4.58 -0.4 7 7 1024.4 0 11.3 21.7 27.4 70.9 53.9 181.5
27 05:40 7.2 60 4.71 0 6 7 1024.3 0 11.5 21.9 27.9 72.3 55.6 187.4
27 05:30 7.2 60 4.71 0 7 9 1024.2 0 11.5 21.9 27.9 72.3 55.6 187.4
27 05:10 7.4 60 4.77 0.2 9 9 1024 0 11.7 22.0 28.0 72.7 56.2 189.5
27 04:40 7.5 62 4.96 0.7 11 11 1023.6 0 12.1 22.2 28.7 74.5 58.5 197.6
27 04:30 7.4 64 5.09 1 11 11 1023.4 0 12.3 22.4 29.2 75.9 60.2 203.5
27 04:20 7.3 63 4.98 0.7 11 11 1023.5 0 12.1 22.3 28.8 74.9 58.9 198.9
27 04:10 7.1 65 5.07 1 11 11 1023.5 0 12.3 22.5 29.2 76.0 60.2 203.4
27 04:00 7.1 65 5.07 1 9 11 1023.5 0 12.3 22.5 29.2 76.0 60.2 203.4
27 03:50 7.4 65 5.17 1.3 9 9 1023.5 0 12.5 22.6 29.5 76.7 61.2 207.1
27 03:40 8 65 5.38 1.8 7 7 1023.4 0 12.9 22.7 30.1 78.3 63.4 214.8
27 03:30 8.2 63 5.28 1.6 6 7 1023.5 0 12.7 22.5 29.6 77.1 62.0 209.9
27 03:20 8.2 60 5.03 0.9 2 6 1023.5 0 12.2 22.1 28.7 74.6 58.8 198.9
27 03:10 8.3 59 4.97 0.8 0 0 1023.4 0 12.1 22.0 28.4 73.9 58.0 196.0
27 03:00 8.2 60 5.03 0.9 2 6 1023.3 0 12.2 22.1 28.7 74.5 58.8 198.8
27 02:50 8.9 59 5.17 1.3 4 6 1023.3 0 12.5 22.2 29.0 75.3 60.0 203.2
27 02:40 8.8 59 5.14 1.2 6 7 1023.2 0 12.4 22.2 28.9 75.1 59.7 202.1
27 02:30 9.1 57 5.06 1 7 7 1023.2 0 12.2 22.0 28.5 74.0 58.5 197.9
27 02:20 9 57 5.03 1 6 7 1023.2 0 12.2 21.9 28.4 73.8 58.2 196.9
27 02:10 9 57 5.03 1 7 7 1023.3 0 12.2 21.9 28.4 73.8 58.2 196.9
27 02:00 9.3 55 4.94 0.7 7 11 1023.4 0 12.0 21.7 28.0 72.6 56.9 192.3
27 01:50 9.5 55 5.01 0.9 11 11 1023.5 0 12.1 21.8 28.2 73.2 57.6 194.8
27 01:40 9.4 57 5.16 1.3 11 13 1023.4 0 12.4 22.1 28.8 74.7 59.5 201.5
27 01:30 9.3 57 5.12 1.2 11 15 1023.5 0 12.3 22.0 28.6 74.4 59.1 200.1
27 01:20 10.3 53 5.08 1.2 9 11 1023.6 0 12.2 21.7 28.2 73.1 57.9 195.9
27 01:10 9.4 56 5.07 1.1 7 9 1023.7 0 12.2 21.9 28.4 73.9 58.5 197.7
27 01:00 9 57 5.03 1 7 7 1023.7 0 12.2 22.0 28.4 73.8 58.3 196.9
27 00:50 9.1 57 5.06 1 7 7 1023.7 0 12.2 22.0 28.5 74.0 58.6 198.0
27 00:40 9.4 55 4.98 0.8 7 7 1023.6 0 12.0 21.8 28.1 73.0 57.3 193.8
27 00:30 9.8 51 4.73 0.2 7 11 1023.6 0 11.5 21.3 27.0 70.2 54.0 182.2
27 00:20 10.6 48 4.69 0.1 11 11 1023.5 0 11.4 21.1 26.6 69.1 53.0 178.7
27 00:10 10.7 47 4.62 -0.1 11 13 1023.4 0 11.2 20.9 26.3 68.3 52.1 175.6
27 00:00 11.1 45 4.53 -0.4 13 15 1023.4 0 11.0 20.7 25.9 67.1 50.8 171.0
26 23:50 11.4 44 4.52 -0.4 15 15 1023.3 0 11.0 20.6 25.8 66.8 50.5 169.9
26 23:40 11.6 44 4.57 -0.2 15 15 1023.4 0 11.1 20.7 25.9 67.1 50.9 171.6
26 23:30 11.2 46 4.66 0 13 15 1023.4 0 11.3 20.9 26.3 68.3 52.3 176.2
26 23:20 11 48 4.81 0.4 11 13 1023.5 0 11.6 21.2 26.9 69.9 54.2 182.9
26 23:10 10.9 47 4.68 0 11 11 1023.5 0 11.4 21.0 26.5 68.7 52.7 177.7
26 23:00 11 45 4.51 -0.5 9 11 1023.5 0 11.0 20.7 25.9 67.0 50.6 170.4
26 22:50 11.1 45 4.53 -0.4 9 9 1023.5 0 11.0 20.7 25.9 67.1 50.8 171.0
26 22:40 11.4 44 4.52 -0.4 9 9 1023.5 0 11.0 20.7 25.8 66.8 50.5 170.0
26 22:30 11.6 43 4.47 -0.5 9 9 1023.5 0 10.9 20.5 25.5 66.1 49.8 167.5
26 22:20 11.9 42 4.45 -0.6 9 11 1023.5 0 10.8 20.4 25.4 65.7 49.4 166.1
26 22:10 12 41 4.37 -0.8 9 11 1023.6 0 10.7 20.3 25.1 64.9 48.4 162.6
26 22:00 12.3 40 4.34 -0.9 11 11 1023.6 0 10.6 20.2 24.9 64.4 47.9 160.8
26 21:50 12.7 38 4.23 -1.2 11 11 1023.5 0 10.4 20.0 24.4 63.0 46.4 155.6
26 21:40 13 37 4.2 -1.3 13 15 1023.4 0 10.3 19.9 24.2 62.5 45.9 153.9
26 21:30 12.9 37 4.17 -1.4 13 15 1023.3 0 10.2 19.8 24.1 62.3 45.6 152.9
26 21:20 13.2 35 4.02 -1.9 13 15 1023.3 0 9.9 19.6 23.5 60.7 43.7 146.4
26 21:10 13.6 35 4.12 -1.6 15 15 1023.2 0 10.1 19.6 23.7 61.3 44.6 149.6
26 21:00 13.9 34 4.08 -1.7 15 17 1023.2 0 10.0 19.5 23.5 60.8 44.0 147.5
26 20:50 14.2 33 4.03 -1.8 15 17 1023.2 0 9.9 19.4 23.3 60.1 43.3 145.0
26 20:40 14.4 33 4.08 -1.6 15 17 1023.1 0 10.0 19.4 23.4 60.4 43.7 146.6

Last Refresh: 27-Sep-2020 13:48:08

Most of the information presented on this site is sourced from the Bureau of Meteorology.  Copyright in all material sourced from the Bureau of Meteorology resides with the Commonwealth of Australia.